Pagrindinis puslapis
METAR-TAF:

METAR-TAF

Oro uostai :

Burlengė, Švedija

platuma: 60-26N, ilguma: 015-31E, Aukštis: 145 m

Dabartinis oras

Ataskaita buvo paskelbta 35 minutes, ne 02:20 UTC
Vėjas 9 kt iš Pietryčių
Temperatūra 2°C
Drėgmė 87%
Slėgis 1024 hPa
Matomumas 10 km arba daugiau

METAR: ESSD 080220Z AUTO 14009KT 9999 NCD 02/M00 Q1024

Laikas: 04:55 (02:55 UTC)

Prognozė

Ataskaita buvo paskelbta 15 valandos ir 25 minutes, ne 11:30 UTC
Prognozė galioja nuo 07 metu 12 UTC su 07 metu 15 UTC
Vėjas 11 kt iš Vakarų/Šiaurės Vakarų
Matomumas 10 km arba daugiau
Su prošvaistėmis ne aukštis 2000 ft

TAF: ESSD 071130Z 0712/0715 30011KT 9999 BKN020

Orai ataskaitas ir orų prognozės (METAR, TAF).

turimą stotys yra geltonos ir raudonos taškus žemėlapyje.

Perkelti pele per norėdami pamatyti stoties vardą.

Tada spustelėkite, norėdami matyti oro stebėjimo ir prognozės.

Norėdami pakeisti žemėlapį: spustelėkite ant žalios mygtukų su juodo kryžiaus žemyn,; žalią mygtuką su brūkšneliu, jei norite nutolinti; arba žalių rodyklių gretimoms žemėlapius.


METAR-TAF: